createdAt,value
2019-02-16T00:00:04.885Z,0.70
2019-02-16T00:01:07.563Z,0.70
2019-02-16T00:02:05.489Z,0.70
2019-02-16T00:03:05.531Z,0.70
2019-02-16T00:04:05.643Z,0.70
2019-02-16T00:05:07.266Z,0.70
2019-02-16T00:06:05.300Z,0.70
2019-02-16T00:07:07.922Z,0.70
2019-02-16T00:08:07.432Z,0.70
2019-02-16T00:09:07.936Z,0.70
2019-02-16T00:10:07.549Z,0.60
2019-02-16T00:11:05.500Z,0.70
2019-02-16T00:12:08.038Z,0.60
2019-02-16T00:13:07.442Z,0.60
2019-02-16T00:14:05.397Z,0.60
2019-02-16T00:15:05.591Z,0.60
2019-02-16T00:16:04.740Z,0.60
2019-02-16T00:17:04.838Z,0.60
2019-02-16T00:18:07.356Z,0.60
2019-02-16T00:19:05.378Z,0.60
2019-02-16T00:20:05.450Z,0.60
2019-02-16T00:21:04.781Z,0.60
2019-02-16T00:22:04.924Z,0.60
2019-02-16T00:23:07.659Z,0.50
2019-02-16T00:24:04.610Z,0.50
2019-02-16T00:25:04.700Z,0.50
2019-02-16T00:26:04.704Z,0.60
2019-02-16T00:27:04.792Z,0.50
2019-02-16T00:28:04.978Z,0.50
2019-02-16T00:29:07.575Z,0.60
2019-02-16T00:30:05.514Z,0.50
2019-02-16T00:31:08.151Z,0.60
2019-02-16T00:32:07.584Z,0.60
2019-02-16T00:33:05.530Z,0.60
2019-02-16T00:34:08.152Z,0.60
2019-02-16T00:35:05.214Z,0.60
2019-02-16T00:36:07.914Z,0.50
2019-02-16T00:37:04.799Z,0.50
2019-02-16T00:38:04.841Z,0.50
2019-02-16T00:39:04.921Z,0.50
2019-02-16T00:40:04.978Z,0.50
2019-02-16T00:41:05.018Z,0.50
2019-02-16T00:42:05.116Z,0.50
2019-02-16T00:43:05.329Z,0.50
2019-02-16T00:44:05.441Z,0.50
2019-02-16T00:45:05.328Z,0.50
2019-02-16T00:46:05.371Z,0.50
2019-02-16T00:47:07.983Z,0.40
2019-02-16T00:48:04.922Z,0.50
2019-02-16T00:49:05.056Z,0.50
2019-02-16T00:50:05.335Z,0.50
2019-02-16T00:51:13.124Z,0.50
2019-02-16T00:52:07.552Z,0.50
2019-02-16T00:53:05.544Z,0.50
2019-02-16T00:54:05.658Z,0.50
2019-02-16T00:55:09.760Z,0.50
2019-02-16T00:56:04.964Z,0.50
2019-02-16T00:57:07.703Z,0.40
2019-02-16T00:58:04.684Z,0.40
2019-02-16T00:59:07.298Z,0.40
2019-02-16T01:00:05.219Z,0.40
2019-02-16T01:01:10.339Z,0.40
2019-02-16T01:02:05.244Z,0.40
2019-02-16T01:03:05.330Z,0.40
2019-02-16T01:04:07.540Z,0.40
2019-02-16T01:05:05.465Z,0.40
2019-02-16T01:06:05.511Z,0.40
2019-02-16T01:07:08.294Z,0.40
2019-02-16T01:08:05.199Z,0.40
2019-02-16T01:09:05.325Z,0.40
2019-02-16T01:10:05.466Z,0.40
2019-02-16T01:11:05.601Z,0.40
2019-02-16T01:12:07.325Z,0.40
2019-02-16T01:13:10.434Z,0.40
2019-02-16T01:14:08.022Z,0.40
2019-02-16T01:15:04.932Z,0.40
2019-02-16T01:16:04.956Z,0.40
2019-02-16T01:17:05.059Z,0.40
2019-02-16T01:18:05.164Z,0.40
2019-02-16T01:19:07.862Z,0.40
2019-02-16T01:20:04.868Z,0.40
2019-02-16T01:21:04.893Z,0.40
2019-02-16T01:22:07.470Z,0.40
2019-02-16T01:23:08.075Z,0.40
2019-02-16T01:24:05.123Z,0.40
2019-02-16T01:25:07.732Z,0.40
2019-02-16T01:26:04.691Z,0.40
2019-02-16T01:27:04.811Z,0.40
2019-02-16T01:28:04.880Z,0.40
2019-02-16T01:29:05.062Z,0.40
2019-02-16T01:30:07.774Z,0.40
2019-02-16T01:31:04.746Z,0.40
2019-02-16T01:32:07.451Z,0.40
2019-02-16T01:33:05.405Z,0.40
2019-02-16T01:34:08.088Z,0.40
2019-02-16T01:35:07.603Z,0.40
2019-02-16T01:36:05.685Z,0.40
2019-02-16T01:37:04.884Z,0.40
2019-02-16T01:38:05.289Z,0.40
2019-02-16T01:39:05.376Z,0.40
2019-02-16T01:40:05.461Z,0.40
2019-02-16T01:41:05.637Z,0.40
2019-02-16T01:42:04.811Z,0.30
2019-02-16T01:43:04.940Z,0.30
2019-02-16T01:44:05.054Z,0.30
2019-02-16T01:45:05.145Z,0.30
2019-02-16T01:46:07.755Z,0.30
2019-02-16T01:47:04.656Z,0.30
2019-02-16T01:48:04.740Z,0.30
2019-02-16T01:49:04.822Z,0.30
2019-02-16T01:50:07.500Z,0.30
2019-02-16T01:51:05.532Z,0.30
2019-02-16T01:52:08.332Z,0.30
2019-02-16T01:53:07.846Z,0.30
2019-02-16T01:54:07.339Z,0.30
2019-02-16T01:55:07.810Z,0.30
2019-02-16T01:56:04.834Z,0.30
2019-02-16T01:57:04.974Z,0.30
2019-02-16T01:58:05.060Z,0.30
2019-02-16T01:59:05.126Z,0.30
2019-02-16T02:00:05.396Z,0.30
2019-02-16T02:01:05.577Z,0.30
2019-02-16T02:02:08.268Z,0.30
2019-02-16T02:03:07.779Z,0.20
2019-02-16T02:04:07.275Z,0.20
2019-02-16T02:05:05.318Z,0.20
2019-02-16T02:06:05.488Z,0.20
2019-02-16T02:07:05.750Z,0.20
2019-02-16T02:08:04.842Z,0.20
2019-02-16T02:09:04.997Z,0.20
2019-02-16T02:10:05.111Z,0.20
2019-02-16T02:11:05.160Z,0.20
2019-02-16T02:12:07.848Z,0.20
2019-02-16T02:13:04.790Z,0.10
2019-02-16T02:14:04.934Z,0.20
2019-02-16T02:15:05.042Z,0.20
2019-02-16T02:16:05.128Z,0.20
2019-02-16T02:17:07.948Z,0.20
2019-02-16T02:18:05.004Z,0.20
2019-02-16T02:19:05.091Z,0.20
2019-02-16T02:20:05.136Z,0.20
2019-02-16T02:21:05.317Z,0.20
2019-02-16T02:22:05.423Z,0.20
2019-02-16T02:23:10.611Z,0.20
2019-02-16T02:24:08.177Z,0.20
2019-02-16T02:25:05.276Z,0.20
2019-02-16T02:26:05.450Z,0.20
2019-02-16T02:27:10.591Z,0.20
2019-02-16T02:28:05.636Z,0.20
2019-02-16T02:29:04.700Z,0.20
2019-02-16T02:30:05.426Z,0.30
2019-02-16T02:31:05.539Z,0.20
2019-02-16T02:32:05.667Z,0.20
2019-02-16T02:33:04.752Z,0.20
2019-02-16T02:34:04.828Z,0.20
2019-02-16T02:35:07.556Z,0.20
2019-02-16T02:36:05.574Z,0.20
2019-02-16T02:37:04.662Z,0.20
2019-02-16T02:38:07.291Z,0.20
2019-02-16T02:39:05.240Z,0.20
2019-02-16T02:40:05.312Z,0.20
2019-02-16T02:41:07.943Z,0.20
2019-02-16T02:42:07.380Z,0.20
2019-02-16T02:43:05.377Z,0.20
2019-02-16T02:44:05.453Z,0.20
2019-02-16T02:45:08.180Z,0.20
2019-02-16T02:46:05.229Z,0.20
2019-02-16T02:47:07.904Z,0.20
2019-02-16T02:48:04.856Z,0.20
2019-02-16T02:49:05.022Z,0.20
2019-02-16T02:50:05.479Z,0.20
2019-02-16T02:51:05.671Z,0.20
2019-02-16T02:52:04.741Z,0.20
2019-02-16T02:53:04.822Z,0.20
2019-02-16T02:54:04.993Z,0.20
2019-02-16T02:55:05.046Z,0.20
2019-02-16T02:56:05.108Z,0.20
2019-02-16T02:57:05.132Z,0.20
2019-02-16T02:58:05.185Z,0.20
2019-02-16T02:59:05.366Z,0.20
2019-02-16T03:00:08.071Z,0.20
2019-02-16T03:01:05.090Z,0.20
2019-02-16T03:02:07.858Z,0.20
2019-02-16T03:03:07.395Z,0.30
2019-02-16T03:04:05.539Z,0.20
2019-02-16T03:05:07.316Z,0.30
2019-02-16T03:06:05.402Z,0.30
2019-02-16T03:07:05.634Z,0.30
2019-02-16T03:08:04.711Z,0.30
2019-02-16T03:09:07.290Z,0.30
2019-02-16T03:10:07.715Z,0.30
2019-02-16T03:11:04.670Z,0.40
2019-02-16T03:12:07.330Z,0.40
2019-02-16T03:13:05.228Z,0.30
2019-02-16T03:14:05.281Z,0.40
2019-02-16T03:15:05.479Z,0.40
2019-02-16T03:16:05.583Z,0.30
2019-02-16T03:17:07.236Z,0.30
2019-02-16T03:18:05.308Z,0.40
2019-02-16T03:19:07.959Z,0.30
2019-02-16T03:20:07.502Z,0.40
2019-02-16T03:21:08.076Z,0.30
2019-02-16T03:22:07.645Z,0.40
2019-02-16T03:23:05.686Z,0.40
2019-02-16T03:24:04.764Z,0.30
2019-02-16T03:25:04.844Z,0.40
2019-02-16T03:26:07.443Z,0.30
2019-02-16T03:27:08.018Z,0.40
2019-02-16T03:28:05.003Z,0.30
2019-02-16T03:29:05.169Z,0.30
2019-02-16T03:30:10.545Z,0.30
2019-02-16T03:31:05.476Z,0.30
2019-02-16T03:32:08.278Z,0.30
2019-02-16T03:33:05.403Z,0.30
2019-02-16T03:34:05.657Z,0.30
2019-02-16T03:35:09.985Z,0.30
2019-02-16T03:36:04.938Z,0.30
2019-02-16T03:37:05.130Z,0.30
2019-02-16T03:38:05.278Z,0.30
2019-02-16T03:39:05.362Z,0.20
2019-02-16T03:40:07.955Z,0.20
2019-02-16T03:41:04.941Z,0.20
2019-02-16T03:42:05.048Z,0.20
2019-02-16T03:43:05.171Z,0.20
2019-02-16T03:44:05.316Z,0.20
2019-02-16T03:45:05.425Z,0.20
2019-02-16T03:46:08.108Z,0.10
2019-02-16T03:47:05.050Z,0.10
2019-02-16T03:48:05.216Z,0.20
2019-02-16T03:49:05.330Z,0.10
2019-02-16T03:50:04.757Z,0.10
2019-02-16T03:51:05.167Z,0.10
2019-02-16T03:52:13.173Z,0.10
2019-02-16T03:53:05.329Z,0.10
2019-02-16T03:54:05.395Z,0.10
2019-02-16T03:55:05.502Z,0.10
2019-02-16T03:56:05.525Z,0.00
2019-02-16T03:57:05.571Z,0.00
2019-02-16T03:58:08.319Z,0.00
2019-02-16T03:59:10.488Z,0.00
2019-02-16T04:00:10.537Z,0.00
2019-02-16T04:01:08.047Z,0.00
2019-02-16T04:02:07.607Z,0.00
2019-02-16T04:03:05.627Z,0.00
2019-02-16T04:04:04.652Z,0.00
2019-02-16T04:05:04.709Z,0.00
2019-02-16T04:06:04.769Z,0.00
2019-02-16T04:07:04.794Z,-0.10
2019-02-16T04:08:04.801Z,-0.10
2019-02-16T04:09:04.926Z,-0.10
2019-02-16T04:10:05.086Z,-0.10
2019-02-16T04:11:05.320Z,-0.10
2019-02-16T04:12:10.661Z,-0.10
2019-02-16T04:13:04.726Z,-0.10
2019-02-16T04:14:07.293Z,-0.10
2019-02-16T04:15:05.269Z,-0.10
2019-02-16T04:16:10.670Z,-0.20
2019-02-16T04:17:04.836Z,-0.10
2019-02-16T04:18:07.559Z,-0.20
2019-02-16T04:19:05.552Z,-0.10
2019-02-16T04:20:05.605Z,-0.10
2019-02-16T04:21:07.184Z,-0.10
2019-02-16T04:22:05.110Z,-0.10
2019-02-16T04:23:07.877Z,-0.10
2019-02-16T04:24:04.934Z,-0.20
2019-02-16T04:25:05.025Z,-0.10
2019-02-16T04:26:05.039Z,-0.10
2019-02-16T04:27:05.217Z,-0.10
2019-02-16T04:28:05.374Z,-0.10
2019-02-16T04:29:05.446Z,-0.10
2019-02-16T04:30:05.229Z,-0.10
2019-02-16T04:31:05.369Z,-0.10
2019-02-16T04:32:08.112Z,-0.10
2019-02-16T04:33:05.114Z,-0.10
2019-02-16T04:34:05.241Z,-0.10
2019-02-16T04:35:07.942Z,-0.10
2019-02-16T04:36:07.519Z,0.00
2019-02-16T04:37:05.467Z,-0.10
2019-02-16T04:38:08.167Z,0.00
2019-02-16T04:39:05.123Z,-0.10
2019-02-16T04:40:05.477Z,-0.10
2019-02-16T04:41:08.164Z,0.00
2019-02-16T04:42:07.634Z,0.00
2019-02-16T04:43:05.539Z,0.00
2019-02-16T04:44:08.147Z,0.00
2019-02-16T04:45:05.039Z,0.00
2019-02-16T04:46:12.735Z,0.00
2019-02-16T04:47:07.306Z,0.10
2019-02-16T04:48:07.824Z,0.10
2019-02-16T04:49:04.769Z,0.10
2019-02-16T04:50:07.384Z,0.10
2019-02-16T04:51:05.419Z,0.10
2019-02-16T04:52:05.561Z,0.10
2019-02-16T04:53:08.275Z,0.20
2019-02-16T04:54:07.728Z,0.30
2019-02-16T04:55:05.657Z,0.20
2019-02-16T04:56:04.816Z,0.30
2019-02-16T04:57:04.870Z,0.30
2019-02-16T04:58:07.490Z,0.30
2019-02-16T04:59:07.906Z,0.30
2019-02-16T05:00:04.848Z,0.30
2019-02-16T05:01:04.909Z,0.40
2019-02-16T05:02:05.108Z,0.40
2019-02-16T05:03:10.564Z,0.40
2019-02-16T05:04:05.610Z,0.40
2019-02-16T05:05:12.368Z,0.50
2019-02-16T05:06:05.268Z,0.50
2019-02-16T05:07:05.300Z,0.50
2019-02-16T05:08:05.476Z,0.50
2019-02-16T05:09:08.169Z,0.60
2019-02-16T05:10:07.644Z,0.60
2019-02-16T05:11:08.238Z,0.60
2019-02-16T05:12:07.868Z,0.60
2019-02-16T05:13:07.410Z,0.70
2019-02-16T05:14:07.859Z,0.70
2019-02-16T05:15:07.361Z,0.70
2019-02-16T05:16:05.321Z,0.70
2019-02-16T05:17:05.666Z,0.70
2019-02-16T05:18:04.744Z,0.70
2019-02-16T05:19:04.978Z,0.80
2019-02-16T05:20:05.075Z,0.80
2019-02-16T05:21:05.254Z,0.80
2019-02-16T05:22:07.861Z,0.90
2019-02-16T05:23:05.184Z,0.90
2019-02-16T05:24:05.352Z,0.90
2019-02-16T05:25:08.328Z,0.90
2019-02-16T05:26:07.880Z,1.00
2019-02-16T05:27:04.919Z,0.90
2019-02-16T05:28:05.011Z,1.00
2019-02-16T05:29:05.143Z,1.00
2019-02-16T05:30:05.255Z,1.00
2019-02-16T05:31:05.327Z,1.00
2019-02-16T05:32:08.005Z,1.00
2019-02-16T05:33:07.573Z,1.10
2019-02-16T05:34:08.042Z,1.10
2019-02-16T05:35:07.431Z,1.10
2019-02-16T05:36:05.473Z,1.10
2019-02-16T05:37:04.863Z,1.10
2019-02-16T05:38:04.989Z,1.10
2019-02-16T05:39:05.053Z,1.10
2019-02-16T05:40:05.221Z,1.20
2019-02-16T05:41:05.279Z,1.10
2019-02-16T05:42:07.914Z,1.10
2019-02-16T05:43:04.837Z,1.10
2019-02-16T05:44:07.436Z,1.10
2019-02-16T05:45:05.535Z,1.10
2019-02-16T05:46:08.294Z,1.10
2019-02-16T05:47:05.237Z,1.10
2019-02-16T05:48:05.391Z,1.10
2019-02-16T05:49:05.437Z,1.10
2019-02-16T05:50:08.023Z,1.10
2019-02-16T05:51:10.178Z,1.10
2019-02-16T05:52:05.261Z,1.10
2019-02-16T05:53:05.510Z,1.10
2019-02-16T05:54:05.776Z,1.10
2019-02-16T05:55:07.472Z,1.10
2019-02-16T05:56:05.376Z,1.10
2019-02-16T05:57:05.487Z,1.10
2019-02-16T05:58:05.590Z,1.10
2019-02-16T05:59:10.848Z,1.10
2019-02-16T06:00:04.943Z,1.10
2019-02-16T06:01:05.077Z,1.10
2019-02-16T06:02:10.206Z,1.10
2019-02-16T06:03:05.385Z,1.10
2019-02-16T06:04:05.641Z,1.10
2019-02-16T06:05:09.882Z,1.10
2019-02-16T06:06:04.872Z,1.10
2019-02-16T06:07:10.206Z,1.10
2019-02-16T06:08:05.181Z,1.00
2019-02-16T06:09:07.828Z,1.10
2019-02-16T06:10:04.784Z,1.10
2019-02-16T06:11:05.932Z,1.10
2019-02-16T06:12:07.804Z,1.10
2019-02-16T06:13:07.324Z,1.10
2019-02-16T06:14:05.234Z,1.10
2019-02-16T06:15:05.402Z,1.10
2019-02-16T06:16:08.019Z,1.10
2019-02-16T06:17:05.067Z,1.10
2019-02-16T06:18:05.285Z,1.10
2019-02-16T06:19:05.589Z,1.10
2019-02-16T06:20:04.816Z,1.00
2019-02-16T06:21:07.418Z,1.10
2019-02-16T06:22:05.306Z,1.10
2019-02-16T06:23:08.007Z,1.10
2019-02-16T06:24:04.939Z,1.00
2019-02-16T06:25:05.002Z,1.00
2019-02-16T06:26:07.648Z,1.10
2019-02-16T06:27:08.246Z,1.10
2019-02-16T06:28:05.331Z,1.00
2019-02-16T06:29:04.767Z,1.10
2019-02-16T06:30:07.721Z,1.10
2019-02-16T06:31:04.724Z,1.10
2019-02-16T06:32:04.795Z,1.10
2019-02-16T06:33:04.827Z,1.00
2019-02-16T06:34:07.417Z,1.00
2019-02-16T06:35:05.481Z,1.00
2019-02-16T06:36:05.751Z,1.10
2019-02-16T06:37:04.867Z,1.10
2019-02-16T06:38:05.087Z,1.10
2019-02-16T06:39:07.393Z,1.00
2019-02-16T06:40:07.894Z,1.00
2019-02-16T06:41:04.796Z,1.10
2019-02-16T06:42:07.477Z,1.10
2019-02-16T06:43:05.732Z,1.10
2019-02-16T06:44:04.872Z,1.10
2019-02-16T06:45:04.931Z,1.10
2019-02-16T06:46:05.041Z,1.20
2019-02-16T06:47:05.240Z,1.20
2019-02-16T06:48:05.456Z,1.20
2019-02-16T06:49:05.577Z,1.20
2019-02-16T06:50:05.747Z,1.20
2019-02-16T06:51:04.851Z,1.20
2019-02-16T06:52:07.449Z,1.20
2019-02-16T06:53:12.781Z,1.20
2019-02-16T06:54:05.730Z,1.20
2019-02-16T06:55:04.914Z,1.30
2019-02-16T06:56:05.040Z,1.30
2019-02-16T06:57:05.114Z,1.20
2019-02-16T06:58:05.268Z,1.30
2019-02-16T06:59:05.377Z,1.30
2019-02-16T07:00:05.447Z,1.20
2019-02-16T07:01:05.667Z,1.30
2019-02-16T07:02:04.787Z,1.20
2019-02-16T07:03:04.865Z,1.30
2019-02-16T07:04:05.700Z,1.30
2019-02-16T07:05:07.555Z,1.30
2019-02-16T07:06:08.036Z,1.30
2019-02-16T07:07:07.555Z,1.30
2019-02-16T07:08:05.524Z,1.20
2019-02-16T07:09:05.611Z,1.30
2019-02-16T07:10:04.860Z,1.30
2019-02-16T07:11:07.654Z,1.40
2019-02-16T07:12:05.594Z,1.40
2019-02-16T07:13:05.661Z,1.40
2019-02-16T07:14:04.732Z,1.40
2019-02-16T07:15:05.083Z,1.50
2019-02-16T07:16:12.749Z,1.60
2019-02-16T07:17:04.716Z,1.60
2019-02-16T07:18:07.483Z,1.80
2019-02-16T07:19:05.487Z,1.80
2019-02-16T07:20:07.286Z,1.90
2019-02-16T07:21:07.313Z,2.20
2019-02-16T07:22:07.708Z,2.30
2019-02-16T07:23:07.301Z,2.40
2019-02-16T07:24:05.389Z,2.50
2019-02-16T07:25:05.548Z,2.60
2019-02-16T07:26:05.658Z,2.70
2019-02-16T07:27:04.719Z,2.80
2019-02-16T07:28:05.030Z,3.00
2019-02-16T07:29:05.190Z,3.10
2019-02-16T07:30:05.667Z,3.20
2019-02-16T07:31:09.969Z,3.40
2019-02-16T07:32:04.976Z,3.40
2019-02-16T07:33:07.580Z,3.70
2019-02-16T07:34:10.742Z,3.80
2019-02-16T07:35:04.936Z,3.80
2019-02-16T07:36:07.500Z,4.00
2019-02-16T07:37:05.465Z,4.00
2019-02-16T07:38:05.631Z,4.10
2019-02-16T07:39:04.789Z,4.20
2019-02-16T07:40:04.855Z,4.30
2019-02-16T07:41:07.586Z,4.50
2019-02-16T07:42:05.670Z,4.50
2019-02-16T07:43:07.339Z,4.70
2019-02-16T07:44:05.261Z,4.70
2019-02-16T07:45:08.008Z,4.80
2019-02-16T07:46:05.061Z,4.80
2019-02-16T07:47:05.273Z,4.90
2019-02-16T07:48:07.954Z,5.10
2019-02-16T07:49:04.852Z,5.10
2019-02-16T07:50:10.125Z,5.30
2019-02-16T07:51:05.093Z,5.30
2019-02-16T07:52:07.705Z,5.50
2019-02-16T07:53:05.625Z,5.50
2019-02-16T07:54:07.277Z,5.60
2019-02-16T07:55:05.265Z,5.60
2019-02-16T07:56:05.417Z,5.70
2019-02-16T07:57:05.508Z,5.70
2019-02-16T07:58:05.185Z,5.80
2019-02-16T07:59:05.311Z,5.90
2019-02-16T08:00:04.825Z,5.90
2019-02-16T08:01:05.520Z,6.00
2019-02-16T08:02:05.661Z,6.10
2019-02-16T08:03:04.866Z,6.10
2019-02-16T08:04:05.065Z,6.20
2019-02-16T08:05:05.533Z,6.20
2019-02-16T08:06:08.131Z,6.30
2019-02-16T08:07:07.768Z,6.30
2019-02-16T08:08:07.358Z,6.40
2019-02-16T08:09:05.372Z,6.40
2019-02-16T08:10:05.464Z,6.40
2019-02-16T08:11:08.201Z,6.50
2019-02-16T08:12:05.170Z,6.50
2019-02-16T08:13:05.213Z,6.50
2019-02-16T08:14:07.815Z,6.60
2019-02-16T08:15:04.843Z,6.60
2019-02-16T08:16:05.211Z,6.60
2019-02-16T08:17:05.330Z,6.70
2019-02-16T08:18:10.467Z,6.80
2019-02-16T08:19:05.426Z,6.80
2019-02-16T08:20:08.115Z,6.80
2019-02-16T08:21:05.079Z,6.80
2019-02-16T08:22:05.231Z,6.80
2019-02-16T08:23:05.379Z,6.80
2019-02-16T08:24:05.576Z,6.90
2019-02-16T08:25:05.656Z,6.90
2019-02-16T08:26:05.358Z,6.90
2019-02-16T08:27:13.301Z,6.90
2019-02-16T08:28:07.331Z,7.00
2019-02-16T08:29:05.273Z,6.90
2019-02-16T08:30:04.803Z,7.00
2019-02-16T08:31:04.907Z,7.10
2019-02-16T08:32:07.505Z,7.20
2019-02-16T08:33:05.487Z,7.10
2019-02-16T08:34:05.639Z,7.20
2019-02-16T08:35:04.718Z,7.20
2019-02-16T08:36:04.826Z,7.30
2019-02-16T08:37:09.963Z,7.30
2019-02-16T08:38:04.876Z,7.30
2019-02-16T08:39:08.031Z,7.40
2019-02-16T08:40:05.087Z,7.40
2019-02-16T08:41:07.723Z,7.50
2019-02-16T08:42:08.328Z,7.50
2019-02-16T08:43:05.415Z,7.50
2019-02-16T08:44:05.620Z,7.60
2019-02-16T08:45:04.789Z,7.60
2019-02-16T08:46:07.421Z,7.70
2019-02-16T08:47:08.102Z,7.70
2019-02-16T08:48:05.086Z,7.70
2019-02-16T08:49:05.159Z,7.80
2019-02-16T08:50:10.410Z,7.90
2019-02-16T08:51:05.392Z,7.90
2019-02-16T08:52:05.538Z,7.90
2019-02-16T08:53:08.505Z,8.00
2019-02-16T08:54:10.549Z,8.00
2019-02-16T08:55:05.515Z,8.00
2019-02-16T08:56:08.196Z,8.10
2019-02-16T08:57:05.190Z,8.00
2019-02-16T08:58:05.468Z,8.10
2019-02-16T08:59:05.648Z,8.10
2019-02-16T09:00:04.777Z,8.20
2019-02-16T09:01:07.570Z,8.20
2019-02-16T09:02:05.600Z,8.20
2019-02-16T09:03:04.749Z,8.20
2019-02-16T09:04:04.861Z,8.30
2019-02-16T09:05:05.116Z,8.30
2019-02-16T09:06:05.310Z,8.30
2019-02-16T09:07:07.915Z,8.40
2019-02-16T09:08:04.848Z,8.40
2019-02-16T09:09:10.093Z,8.50
2019-02-16T09:10:10.084Z,8.50
2019-02-16T09:11:10.097Z,8.60
2019-02-16T09:12:05.956Z,8.50
2019-02-16T09:13:05.269Z,8.60
2019-02-16T09:14:05.418Z,8.60
2019-02-16T09:15:08.121Z,8.70
2019-02-16T09:16:05.158Z,8.70
2019-02-16T09:17:05.470Z,8.70
2019-02-16T09:18:10.821Z,8.80
2019-02-16T09:19:04.848Z,8.80
2019-02-16T09:20:04.963Z,8.90
2019-02-16T09:21:14.063Z,8.90
2019-02-16T09:22:05.003Z,9.00
2019-02-16T09:23:07.679Z,9.10
2019-02-16T09:24:13.215Z,9.10
2019-02-16T09:25:05.280Z,9.10
2019-02-16T09:26:07.894Z,9.20
2019-02-16T09:27:04.914Z,9.20
2019-02-16T09:28:07.538Z,9.30
2019-02-16T09:29:05.594Z,9.30
2019-02-16T09:30:04.977Z,9.30
2019-02-16T09:31:05.094Z,9.40
2019-02-16T09:32:07.750Z,9.40
2019-02-16T09:33:07.264Z,9.50
2019-02-16T09:34:05.285Z,9.50
2019-02-16T09:35:05.497Z,9.50
2019-02-16T09:36:05.645Z,9.60
2019-02-16T09:37:04.694Z,9.60
2019-02-16T09:38:07.442Z,9.70
2019-02-16T09:39:05.616Z,9.70
2019-02-16T09:40:07.297Z,9.80
2019-02-16T09:41:05.250Z,9.70
2019-02-16T09:42:08.022Z,9.80
2019-02-16T09:43:07.597Z,9.80
2019-02-16T09:44:05.700Z,9.80
2019-02-16T09:45:07.554Z,9.90
2019-02-16T09:46:05.642Z,9.90
2019-02-16T09:47:04.834Z,10.00
2019-02-16T09:48:05.095Z,10.00
2019-02-16T09:49:10.386Z,10.10
2019-02-16T09:50:08.048Z,10.20
2019-02-16T09:51:05.068Z,10.10
2019-02-16T09:52:05.197Z,10.20
2019-02-16T09:53:08.109Z,10.30
2019-02-16T09:54:08.287Z,10.30
2019-02-16T09:55:07.445Z,10.40
2019-02-16T09:56:05.412Z,10.40
2019-02-16T09:57:05.578Z,10.50
2019-02-16T09:58:07.247Z,10.60
2019-02-16T09:59:07.762Z,10.60
2019-02-16T10:00:04.867Z,10.50
2019-02-16T10:01:04.975Z,10.60
2019-02-16T10:02:07.613Z,10.70
2019-02-16T10:03:05.531Z,10.70
2019-02-16T10:04:05.632Z,10.80
2019-02-16T10:05:07.261Z,10.80
2019-02-16T10:06:07.699Z,10.90
2019-02-16T10:07:04.790Z,10.80
2019-02-16T10:08:07.470Z,11.00
2019-02-16T10:09:05.543Z,10.90
2019-02-16T10:10:08.228Z,11.10
2019-02-16T10:11:05.322Z,11.10
2019-02-16T10:12:05.467Z,11.10
2019-02-16T10:13:05.668Z,11.20
2019-02-16T10:14:04.774Z,11.20
2019-02-16T10:15:06.846Z,11.30
2019-02-16T10:16:05.222Z,11.30
2019-02-16T10:17:05.359Z,11.40
2019-02-16T10:18:05.679Z,11.40
2019-02-16T10:19:07.417Z,11.50
2019-02-16T10:20:08.064Z,11.50
2019-02-16T10:21:05.211Z,11.50
2019-02-16T10:22:05.497Z,11.60
2019-02-16T10:23:05.724Z,11.60
2019-02-16T10:24:07.458Z,11.70
2019-02-16T10:25:08.147Z,11.80
2019-02-16T10:26:07.594Z,11.80
2019-02-16T10:27:05.649Z,11.80
2019-02-16T10:28:04.742Z,11.90
2019-02-16T10:29:04.821Z,11.90
2019-02-16T10:30:07.766Z,12.00
2019-02-16T10:31:07.358Z,12.00
2019-02-16T10:32:05.320Z,12.00
2019-02-16T10:33:05.450Z,12.00
2019-02-16T10:34:05.584Z,12.00
2019-02-16T10:35:04.823Z,12.10
2019-02-16T10:36:04.888Z,12.10
2019-02-16T10:37:05.001Z,12.20
2019-02-16T10:38:07.630Z,12.30
2019-02-16T10:39:05.756Z,12.20
2019-02-16T10:40:04.879Z,12.30
2019-02-16T10:41:05.002Z,12.30
2019-02-16T10:42:05.187Z,12.40
2019-02-16T10:43:07.921Z,12.40
2019-02-16T10:44:07.460Z,12.50
2019-02-16T10:45:08.121Z,12.50
2019-02-16T10:46:07.575Z,12.60
2019-02-16T10:47:05.587Z,12.50
2019-02-16T10:48:04.689Z,12.60
2019-02-16T10:49:06.504Z,12.60
2019-02-16T10:50:10.016Z,12.70
2019-02-16T10:51:04.995Z,12.70
2019-02-16T10:52:04.744Z,12.70
2019-02-16T10:53:04.821Z,12.80
2019-02-16T10:54:07.612Z,12.80
2019-02-16T10:55:10.839Z,12.90
2019-02-16T10:56:07.380Z,12.90
2019-02-16T10:57:05.336Z,12.90
2019-02-16T10:58:05.402Z,12.90
2019-02-16T10:59:07.917Z,13.00
2019-02-16T11:00:05.038Z,13.00
2019-02-16T11:01:05.183Z,13.00
2019-02-16T11:02:07.903Z,13.10
2019-02-16T11:03:07.471Z,13.20
2019-02-16T11:04:05.558Z,13.10
2019-02-16T11:05:04.830Z,13.10
2019-02-16T11:06:05.029Z,13.20
2019-02-16T11:07:05.201Z,13.20
2019-02-16T11:08:08.007Z,13.30
2019-02-16T11:09:05.055Z,13.20
2019-02-16T11:10:05.146Z,13.30
2019-02-16T11:11:05.279Z,13.30
2019-02-16T11:12:08.014Z,13.40
2019-02-16T11:13:05.071Z,13.40
2019-02-16T11:14:05.299Z,13.40
2019-02-16T11:15:10.594Z,13.50
2019-02-16T11:16:07.983Z,13.50
2019-02-16T11:17:05.025Z,13.50
2019-02-16T11:18:05.295Z,13.50
2019-02-16T11:19:05.467Z,13.60
2019-02-16T11:20:08.133Z,13.60
2019-02-16T11:21:05.130Z,13.60
2019-02-16T11:22:05.238Z,13.60
2019-02-16T11:23:07.872Z,13.70
2019-02-16T11:24:07.427Z,13.70
2019-02-16T11:25:07.965Z,13.70
2019-02-16T11:26:05.033Z,13.70
2019-02-16T11:27:05.128Z,13.80
2019-02-16T11:28:07.916Z,13.80
2019-02-16T11:29:04.989Z,13.80
2019-02-16T11:30:05.169Z,13.90
2019-02-16T11:31:05.356Z,13.90
2019-02-16T11:32:05.629Z,13.90
2019-02-16T11:33:04.768Z,13.90
2019-02-16T11:34:07.368Z,14.00
2019-02-16T11:35:05.345Z,14.00
2019-02-16T11:36:08.051Z,14.00
2019-02-16T11:37:05.124Z,14.10
2019-02-16T11:38:05.188Z,14.10
2019-02-16T11:39:05.379Z,14.10
2019-02-16T11:40:08.026Z,14.20
2019-02-16T11:41:08.821Z,14.20
2019-02-16T11:42:05.118Z,14.10
2019-02-16T11:43:05.318Z,14.20
2019-02-16T11:44:05.402Z,14.30
2019-02-16T11:45:08.000Z,14.30
2019-02-16T11:46:07.537Z,14.30
2019-02-16T11:47:05.685Z,14.30
2019-02-16T11:48:04.915Z,14.30
2019-02-16T11:49:05.057Z,14.40
2019-02-16T11:50:05.153Z,14.40
2019-02-16T11:51:07.816Z,14.50
2019-02-16T11:52:04.780Z,14.40
2019-02-16T11:53:12.634Z,14.50
2019-02-16T11:54:08.141Z,14.60
2019-02-16T11:55:05.232Z,14.50
2019-02-16T11:56:05.401Z,14.60
2019-02-16T11:57:08.016Z,14.60
2019-02-16T11:58:05.009Z,14.60
2019-02-16T11:59:07.679Z,14.70
2019-02-16T12:00:05.633Z,14.70
2019-02-16T12:01:04.834Z,14.70
2019-02-16T12:02:04.992Z,14.70
2019-02-16T12:03:05.082Z,14.70
2019-02-16T12:04:07.751Z,14.70
2019-02-16T12:05:07.345Z,14.80
2019-02-16T12:06:05.369Z,14.70
2019-02-16T12:07:07.994Z,14.80
2019-02-16T12:08:07.678Z,14.80
2019-02-16T12:09:04.754Z,14.80
2019-02-16T12:10:04.849Z,14.80
2019-02-16T12:11:05.143Z,14.80
2019-02-16T12:12:05.316Z,14.80
2019-02-16T12:13:05.619Z,14.80
2019-02-16T12:14:07.414Z,14.90
2019-02-16T12:15:07.910Z,14.90
2019-02-16T12:16:07.409Z,14.90
2019-02-16T12:17:05.513Z,14.90
2019-02-16T12:18:05.634Z,14.90
2019-02-16T12:19:07.303Z,15.00
2019-02-16T12:20:07.885Z,15.00
2019-02-16T12:21:07.494Z,15.00
2019-02-16T12:22:08.006Z,15.00
2019-02-16T12:23:07.467Z,15.00
2019-02-16T12:24:05.542Z,15.00
2019-02-16T12:25:05.599Z,15.00
2019-02-16T12:26:05.361Z,15.00
2019-02-16T12:27:08.051Z,15.10
2019-02-16T12:28:05.051Z,15.00
2019-02-16T12:29:05.159Z,15.10
2019-02-16T12:30:05.637Z,15.10
2019-02-16T12:31:04.787Z,15.10
2019-02-16T12:32:04.841Z,15.10
2019-02-16T12:33:05.011Z,15.10
2019-02-16T12:34:05.157Z,15.10
2019-02-16T12:35:05.434Z,15.10
2019-02-16T12:36:05.566Z,15.10
2019-02-16T12:37:04.874Z,15.10
2019-02-16T12:38:05.237Z,15.10
2019-02-16T12:39:05.497Z,15.20
2019-02-16T12:40:07.177Z,15.20
2019-02-16T12:41:07.718Z,15.20
2019-02-16T12:42:07.251Z,15.20
2019-02-16T12:43:05.215Z,15.20
2019-02-16T12:44:05.321Z,15.30
2019-02-16T12:45:07.966Z,15.30
2019-02-16T12:46:04.881Z,15.30
2019-02-16T12:47:05.033Z,15.30
2019-02-16T12:48:07.636Z,15.30
2019-02-16T12:49:05.656Z,15.30
2019-02-16T12:50:04.915Z,15.30
2019-02-16T12:51:07.567Z,15.30
2019-02-16T12:52:10.705Z,15.30
2019-02-16T12:53:07.248Z,15.40
2019-02-16T12:54:05.206Z,15.30
2019-02-16T12:55:14.144Z,15.30
2019-02-16T12:56:04.993Z,15.40
2019-02-16T12:57:07.642Z,15.40
2019-02-16T12:58:05.693Z,15.30
2019-02-16T12:59:04.878Z,15.40
2019-02-16T13:00:04.983Z,15.40
2019-02-16T13:01:07.738Z,15.40
2019-02-16T13:02:04.729Z,15.40
2019-02-16T13:03:04.813Z,15.40
2019-02-16T13:04:07.501Z,15.40
2019-02-16T13:05:10.776Z,15.40
2019-02-16T13:06:07.297Z,15.40
2019-02-16T13:07:07.922Z,15.40
2019-02-16T13:08:04.963Z,15.40
2019-02-16T13:09:10.222Z,15.40
2019-02-16T13:10:07.796Z,15.40